createdAt,value
2018-11-02T01:15:19.718Z,29.33
2018-11-02T01:25:52.425Z,27.67
2018-11-02T01:54:22.112Z,28.60
2018-11-02T02:29:47.266Z,31.87
2018-11-02T02:36:25.192Z,28.83
2018-11-02T02:39:40.386Z,34.23
2018-11-02T02:43:01.434Z,29.33
2018-11-02T02:46:19.392Z,27.37
2018-11-02T02:49:38.552Z,25.17
2018-11-02T02:52:57.231Z,23.23
2018-11-02T02:56:01.327Z,32.87
2018-11-02T02:59:08.067Z,26.60
2018-11-02T03:05:29.922Z,25.17
2018-11-02T03:08:44.554Z,30.53
2018-11-02T03:11:49.407Z,28.47
2018-11-02T03:14:54.536Z,30.70
2018-11-02T03:18:10.438Z,31.40
2018-11-02T03:21:16.920Z,29.93
2018-11-02T03:24:26.358Z,29.97
2018-11-02T03:27:40.404Z,25.20
2018-11-02T03:30:46.058Z,25.13
2018-11-02T03:33:54.050Z,29.80
2018-11-02T03:36:58.572Z,30.03
2018-11-02T03:40:13.954Z,23.97
2018-11-02T03:43:26.817Z,33.50
2018-11-02T03:46:32.283Z,32.63
2018-11-02T03:49:42.274Z,33.53
2018-11-02T03:52:48.347Z,22.93
2018-11-02T03:56:01.400Z,27.63
2018-11-02T04:02:37.712Z,29.20
2018-11-02T04:05:43.565Z,32.33
2018-11-02T04:08:46.997Z,34.03
2018-11-02T04:12:05.824Z,29.13
2018-11-02T04:36:14.710Z,37.10
2018-11-02T04:39:29.928Z,40.10
2018-11-02T04:42:40.800Z,36.80
2018-11-02T04:45:44.207Z,46.43
2018-11-02T04:48:51.198Z,38.67
2018-11-02T04:51:54.884Z,46.43
2018-11-02T04:55:00.025Z,37.87
2018-11-02T05:25:49.535Z,48.67
2018-11-02T05:28:52.382Z,51.07
2018-11-02T05:35:42.596Z,45.70
2018-11-02T05:38:54.629Z,52.30
2018-11-02T05:42:09.923Z,46.80
2018-11-02T05:48:36.261Z,52.17
2018-11-02T05:51:51.232Z,55.57
2018-11-02T05:55:01.233Z,54.13
2018-11-02T05:58:06.150Z,60.70
2018-11-02T06:01:10.483Z,56.23
2018-11-02T06:04:28.391Z,60.00
2018-11-02T06:07:43.126Z,57.10
2018-11-02T06:10:49.468Z,63.00
2018-11-02T06:13:57.196Z,52.73
2018-11-02T06:17:01.441Z,58.60
2018-11-02T06:20:23.691Z,54.43
2018-11-02T06:23:35.888Z,51.23
2018-11-02T06:26:48.451Z,55.33
2018-11-02T06:30:07.399Z,58.23
2018-11-02T06:33:27.223Z,57.63
2018-11-02T06:36:33.676Z,57.93
2018-11-02T06:43:24.826Z,64.60
2018-11-02T06:46:28.351Z,57.33
2018-11-02T06:49:45.463Z,59.63
2018-11-02T06:52:53.658Z,55.50
2018-11-02T06:55:59.272Z,57.13
2018-11-02T06:59:05.060Z,56.67
2018-11-02T07:02:08.501Z,55.27
2018-11-02T07:05:12.627Z,49.80
2018-11-02T07:08:20.093Z,58.07
2018-11-02T07:11:32.063Z,58.53
2018-11-02T07:14:48.221Z,53.60
2018-11-02T07:17:54.538Z,54.80
2018-11-02T07:24:26.285Z,57.37
2018-11-02T07:27:33.134Z,58.67
2018-11-02T07:30:40.123Z,60.53
2018-11-02T07:33:55.222Z,56.07
2018-11-02T07:37:08.629Z,63.33
2018-11-02T07:40:20.689Z,57.07
2018-11-02T07:43:25.427Z,55.13
2018-11-02T07:46:38.360Z,63.23
2018-11-02T07:49:45.697Z,65.83
2018-11-02T07:52:50.430Z,62.77
2018-11-02T07:55:55.986Z,68.40
2018-11-02T07:59:00.964Z,60.37
2018-11-02T08:02:04.997Z,63.73
2018-11-02T08:05:09.406Z,74.73
2018-11-02T08:08:12.614Z,69.10
2018-11-02T08:11:17.045Z,74.57
2018-11-02T08:14:22.173Z,76.87
2018-11-02T08:17:28.467Z,71.83
2018-11-02T08:20:32.283Z,81.47
2018-11-02T08:23:36.897Z,80.23
2018-11-02T08:26:49.990Z,81.37
2018-11-02T08:37:00.813Z,75.23
2018-11-02T09:09:42.311Z,101.93
2018-11-02T09:16:18.857Z,97.70
2018-11-02T10:24:41.546Z,47.00
2018-11-02T11:55:59.593Z,50.83
2018-11-02T11:59:31.630Z,52.00
2018-11-02T12:06:29.024Z,59.70
2018-11-02T12:09:36.690Z,53.97
2018-11-02T12:12:58.379Z,47.20
2018-11-02T12:32:04.112Z,39.93
2018-11-02T12:35:13.779Z,44.90
2018-11-02T12:42:12.672Z,35.83
2018-11-02T16:11:17.771Z,35.43
2018-11-02T16:14:20.617Z,47.50
2018-11-02T16:17:25.027Z,38.07
2018-11-02T16:20:27.997Z,31.73
2018-11-02T16:23:30.930Z,38.10
2018-11-02T16:26:33.606Z,32.13
2018-11-02T16:29:36.346Z,34.53
2018-11-02T16:32:39.639Z,33.50
2018-11-02T16:35:42.974Z,26.27
2018-11-02T16:38:47.139Z,27.03
2018-11-02T16:41:50.023Z,25.03
2018-11-02T16:44:57.213Z,23.63
2018-11-02T16:51:14.929Z,24.63
2018-11-02T16:54:18.499Z,18.07
2018-11-02T16:57:22.102Z,33.23
2018-11-02T17:00:27.634Z,28.43
2018-11-02T17:29:23.520Z,13.87
2018-11-02T17:32:36.849Z,17.50
2018-11-02T17:35:49.509Z,18.43
2018-11-02T17:39:27.562Z,20.57
2018-11-02T18:11:24.961Z,17.90
2018-11-02T18:14:28.536Z,16.20
2018-11-02T18:17:32.579Z,17.43
2018-11-02T18:20:40.609Z,21.10
2018-11-02T18:27:35.454Z,20.00
2018-11-02T18:33:54.167Z,19.37
2018-11-02T18:37:03.013Z,21.13
2018-11-02T18:40:09.471Z,20.17
2018-11-02T18:43:13.738Z,16.83
2018-11-02T18:49:37.040Z,12.80
2018-11-02T18:52:40.659Z,19.53
2018-11-02T18:55:46.464Z,21.47
2018-11-02T18:58:52.576Z,14.23
2018-11-02T19:01:56.429Z,17.33
2018-11-02T19:04:59.932Z,12.93
2018-11-02T19:08:03.458Z,13.40
2018-11-02T19:11:06.834Z,18.00
2018-11-02T19:14:09.783Z,15.50
2018-11-02T19:17:15.023Z,11.63
2018-11-02T19:20:25.015Z,11.43
2018-11-02T19:23:41.957Z,20.07
2018-11-02T19:26:46.840Z,16.43
2018-11-02T19:29:52.178Z,19.57
2018-11-02T19:32:59.197Z,20.73
2018-11-02T19:36:03.415Z,13.97
2018-11-02T19:39:28.792Z,20.40
2018-11-02T19:42:33.141Z,14.73
2018-11-02T19:45:43.417Z,21.23
2018-11-02T19:48:52.453Z,21.23
2018-11-02T19:51:56.069Z,19.47
2018-11-02T19:55:01.197Z,29.67
2018-11-02T19:58:14.863Z,26.30
2018-11-02T20:01:19.073Z,24.40
2018-11-02T20:04:22.793Z,24.17
2018-11-02T20:07:26.623Z,22.80
2018-11-02T20:10:46.390Z,23.50
2018-11-02T20:13:49.364Z,24.13
2018-11-02T20:16:52.749Z,18.07
2018-11-02T20:19:55.428Z,24.20
2018-11-02T20:23:02.028Z,36.13
2018-11-02T20:26:05.041Z,24.53
2018-11-02T20:29:13.213Z,37.03
2018-11-02T20:32:19.121Z,19.73
2018-11-02T20:35:24.156Z,30.60
2018-11-02T20:38:28.238Z,24.23
2018-11-02T20:41:31.201Z,36.43
2018-11-02T20:44:36.384Z,29.57
2018-11-02T20:47:44.578Z,32.10
2018-11-02T20:50:53.652Z,32.10
2018-11-02T20:54:00.773Z,25.07
2018-11-02T20:57:08.800Z,26.17
2018-11-02T21:00:21.199Z,29.83
2018-11-02T21:03:23.990Z,28.57
2018-11-02T21:06:26.738Z,29.57
2018-11-02T21:09:29.821Z,28.20
2018-11-02T21:12:32.196Z,24.07
2018-11-02T21:15:34.879Z,26.67
2018-11-02T21:18:37.632Z,26.80
2018-11-02T21:21:40.545Z,50.23
2018-11-02T21:24:43.257Z,39.97
2018-11-02T21:27:46.499Z,14.60
2018-11-02T21:30:52.052Z,14.33
2018-11-02T21:33:54.979Z,13.23
2018-11-02T21:36:57.640Z,11.03
2018-11-02T21:40:00.383Z,7.40
2018-11-02T21:43:03.086Z,6.80
2018-11-02T21:46:05.768Z,8.40
2018-11-02T21:49:08.596Z,8.90
2018-11-02T21:52:11.567Z,8.03
2018-11-02T21:55:14.342Z,8.97
2018-11-02T21:58:17.093Z,3.53
2018-11-02T22:01:20.987Z,4.63
2018-11-02T22:04:23.745Z,4.50
2018-11-02T22:07:26.794Z,5.57
2018-11-02T22:10:30.473Z,3.80
2018-11-02T22:13:33.149Z,4.27
2018-11-02T22:16:36.110Z,4.30
2018-11-02T22:19:38.868Z,5.30
2018-11-02T22:22:41.722Z,7.37
2018-11-02T22:25:45.251Z,5.73
2018-11-02T22:28:47.919Z,9.17
2018-11-02T22:31:50.611Z,7.23
2018-11-02T22:34:54.473Z,7.87
2018-11-02T22:37:58.021Z,12.90
2018-11-02T22:41:00.699Z,6.23
2018-11-02T22:44:03.716Z,9.30
2018-11-02T22:47:06.403Z,1.90
2018-11-02T22:50:09.351Z,6.03
2018-11-02T22:53:12.073Z,4.50
2018-11-02T22:56:15.012Z,7.30
2018-11-02T22:59:17.762Z,12.10
2018-11-02T23:02:20.919Z,7.77
2018-11-02T23:05:23.634Z,9.60
2018-11-02T23:08:26.394Z,7.70
2018-11-02T23:11:29.087Z,13.67
2018-11-02T23:14:32.189Z,9.00
2018-11-02T23:17:34.926Z,8.33
2018-11-02T23:20:37.631Z,6.33
2018-11-02T23:23:41.075Z,11.43
2018-11-02T23:26:44.849Z,10.27
2018-11-02T23:29:47.820Z,5.83
2018-11-02T23:32:50.533Z,9.70
2018-11-02T23:35:54.804Z,6.63
2018-11-02T23:38:57.584Z,12.43
2018-11-02T23:42:00.909Z,7.40
2018-11-02T23:45:04.637Z,5.10
2018-11-02T23:48:12.949Z,10.63
2018-11-02T23:51:15.720Z,13.23
2018-11-02T23:54:18.533Z,5.37
2018-11-02T23:57:22.473Z,10.40
